Hit Tracker is now ESPN Home Run Tracker! Hit Tracker founder Greg Rybarczyk is now collaborating with the ESPN Stats & Information Group to continue tracking all MLB home runs, and helping baseball fans know "How Far It Really Went!™" Please credit any information on this site to ESPN Stats & Information Group. For more information and analysis on home runs, please contact founder Greg Rybarczyk. E-Mail ESPN Home Run Tracker
Main Page | Ballparks | Park Overlays | Glossary | Highlight Homers | Feedback | Bio | 3 Types of HR's | AAA Home Run Derby Last Updated: June 25, 2017, 8:49 pm PST
If you want to know "How Far It Really Went!", then you've come to the right place! Welcome to the ESPN Home Run Tracker, where you can find accurate, transparently verifiable distances for every home run hit in MLB games. Please also check out the ESPN MLB Scoreboard throughout the 2017 season! Contact us at grybar@hittrackeronline.com.
Season:
Ballpark detail for Yankee Stadium
Ballpark # of Home Runs HR per game Avg.
True
Distance
Avg.
Speed
Off
Bat
Avg.
Std.
Dist.
Yankee Stadium 122 3.30 398.8 104.1 397

Scatter Plot of Home Runs Yankee Stadium
 Overlay Ballpark:
Without range rings   With range rings

2017 Season Home Runs for Yankee Stadium
Click headers to sort
Date Video Path Hitter Hitter
Team
Pitcher Pitcher
Team
INN Ballpark Type/
Luck
True
Dist.
Speed
Off
Bat
Elev.
Angle
Horiz.
Angle
Apex Impact Due To: Std.
Dist.
#
Parks
Wind ^ Temp. Alt.
04/16/17 Video View Hicks, Aaron NYY Wainwright, Adam STL 5 Yankee Stadi... PL/L 331 90.3 43.8 60.9 121 46 1 0 284 0
05/14/17 Video View Gardner, Brett NYY Sipp, Tony HOU 8 Yankee Stadi... PL/L 389 96.2 36.2 78.1 115 28 -2 0 362 1
06/24/17 Video View Judge, Aaron NYY Bibens-Dirkx, Austin TEX 6 Yankee Stadi... PL 440 105.3 31.2 97.9 117 12 3 0 426 30
05/14/17 Video View Judge, Aaron NYY Fiers, Mike HOU 4 Yankee Stadi... ND 457 108.4 25.3 90.6 97 9 0 0 448 30
06/07/17 Video View Carter, Chris NYY Porcello, Rick BOS 4 Yankee Stadi... PL 399 101.6 32.6 108.9 109 9 0 0 391 30
06/22/17 Video View Maybin, Cameron LAA Severino, Luis NYY 1 Yankee Stadi... PL 398 101.5 34.3 106.5 122 8 3 0 388 30
04/18/17 Video View Garcia, Leury CHW Severino, Luis NYY 3 Yankee Stadi... PL 426 104.7 26.5 80.7 89 7 -2 0 420 28
05/02/17 Video View Pearce, Steve TOR Tanaka, Masahiro NYY 7 Yankee Stadi... ND 383 102.5 29.9 125.6 81 7 0 0 375 30
05/03/17 Video View Judge, Aaron NYY Stroman, Marcus TOR 3 Yankee Stadi... PL 426 103.0 30.1 93.0 116 7 -2 0 420 28
06/10/17 Video View Gregorius, Didi NYY Tillman, Chris BAL 1 Yankee Stadi... ND 402 102.4 27.9 71.1 79 7 2 0 393 29
06/24/17 Video View Gomez, Carlos TEX Cessa, Luis NYY 4 Yankee Stadi... PL 401 103.8 29.3 116.2 86 7 2 0 393 30
04/18/17 Video View Garcia, Avisail CHW Severino, Luis NYY 7 Yankee Stadi... PL 423 104.2 30.0 99.6 109 6 -3 0 420 30
05/14/17 Video View Castro, Starlin NYY Fiers, Mike HOU 4 Yankee Stadi... JE 344 92.5 31.1 65.0 77 6 0 0 338 1
06/09/17 Video View Castro, Starlin NYY Bundy, Dylan BAL 2 Yankee Stadi... PL 390 98.5 33.4 78.2 113 6 2 0 382 15
06/25/17 Video View Choo, Shin-Soo TEX Pineda, Michael NYY 2 Yankee Stadi... PL 366 98.2 37.2 66.6 122 6 6 0 355 18
04/15/17 Video View Piscotty, Stephen STL Clippard, Tyler NYY 9 Yankee Stadi... JE 376 101.3 24.5 71.8 61 4 0 0 372 1
04/29/17 Video View Gardner, Brett NYY Jimenez, Ubaldo BAL 1 Yankee Stadi... PL 370 100.1 37.4 68.4 131 4 4 0 362 28
05/01/17 Video View Coghlan, Chris TOR Severino, Luis NYY 6 Yankee Stadi... PL 379 99.8 26.4 72.3 72 4 0 0 375 6
05/02/17 Video View Judge, Aaron NYY Latos, Mat TOR 3 Yankee Stadi... JE 332 91.6 33.2 58.2 81 4 0 0 329 2
04/17/17 Video View Judge, Aaron NYY Holland, Derek CHW 5 Yankee Stadi... PL 405 101.7 29.6 102.4 100 3 -1 0 403 30
04/29/17 Video View Judge, Aaron NYY Aquino, Jayson BAL 7 Yankee Stadi... ND 435 105.4 30.7 83.9 120 3 3 0 429 30
04/29/17 Video View Joseph, Caleb BAL Layne, Tommy NYY 9 Yankee Stadi... JE 415 107.6 22.6 101.5 69 3 0 0 411 28
05/01/17 Video View Goins, Ryan TOR Severino, Luis NYY 2 Yankee Stadi... ND 408 103.0 27.3 76.8 86 3 0 0 405 29
05/03/17 Video View Pearce, Steve TOR Sabathia, CC NYY 1 Yankee Stadi... JE 397 103.6 24.7 104.9 71 3 -1 0 394 23
05/14/17 Video View Holliday, Matt NYY Morton, Charlie HOU 5 Yankee Stadi... PL 380 98.6 27.3 75.3 77 3 -1 0 377 16
06/10/17 Video View Judge, Aaron NYY Tillman, Chris BAL 1 Yankee Stadi... ND 397 116.0 21.6 131.4 53 3 2 0 392 30
06/10/17 Video View Holliday, Matt NYY Crichton, Stefan BAL 4 Yankee Stadi... PL 379 99.9 27.0 70.7 73 3 1 0 375 14
06/10/17 Video View Davis, Chris BAL Severino, Luis NYY 7 Yankee Stadi... JE 400 100.0 29.3 101.7 93 3 2 0 395 28
04/16/17 Video View Bird, Greg NYY Wainwright, Adam STL 2 Yankee Stadi... ND 444 109.4 27.5 76.4 99 2 2 0 440 30
04/17/17 Video View Holliday, Matt NYY Holland, Derek CHW 3 Yankee Stadi... ND 447 114.4 23.1 104.9 82 2 -1 0 445 30
04/28/17 Video View Castillo, Welington BAL Sabathia, CC NYY 4 Yankee Stadi... PL 348 95.5 29.3 60.7 71 2 1 0 345 5
04/30/17 Video View Holliday, Matt NYY Miley, Wade BAL 1 Yankee Stadi... PL 430 106.1 26.7 99.5 93 2 -1 0 428 30
05/11/17 Video View Correa, Carlos HOU Pineda, Michael NYY 1 Yankee Stadi... PL 397 104.0 24.5 75.5 72 2 -1 0 396 25
05/27/17 Video View Holliday, Matt NYY Cotton, Jharel OAK 6 Yankee Stadi... PL 413 104.2 33.1 101.1 130 2 0 0 411 30
06/09/17 Video View Schoop, Jonathan BAL Montgomery, Jordan NYY 2 Yankee Stadi... ND 456 113.2 23.4 99.8 77 2 1 0 454 30
06/24/17 Video View Chirinos, Robinson TEX Holder, Jonathan NYY 7 Yankee Stadi... PL 406 107.2 24.2 107.9 69 2 1 0 404 30
04/13/17 Video View Hicks, Aaron NYY Andriese, Matt TB 1 Yankee Stadi... PL 351 94.2 33.0 68.4 95 1 -1 0 351 7
04/10/17 Video View Judge, Aaron NYY Cobb, Alex TB 4 Yankee Stadi... PL 391 105.4 36.7 106.5 150 1 0 0 389 30
04/14/17 Video View Castro, Starlin NYY Wacha, Michael STL 1 Yankee Stadi... JE 389 105.0 21.6 79.4 60 1 0 0 388 4
04/14/17 Video View Romine, Austin NYY Wacha, Michael STL 2 Yankee Stadi... PL 371 99.7 26.4 70.6 72 1 -1 0 372 15
04/17/17 Video View Sanchez, Yolmer CHW Montgomery, Jordan NYY 7 Yankee Stadi... PL 399 104.7 29.8 115.9 93 1 -1 0 398 30
04/19/17 Video View Headley, Chase NYY Covey, Dylan CHW 1 Yankee Stadi... PL 423 106.0 24.2 83.3 81 1 -1 0 424 26
04/28/17 Video View Judge, Aaron NYY Gausman, Kevin BAL 6 Yankee Stadi... JE 425 112.3 18.3 92.6 57 1 0 0 425 23
05/03/17 Video View Holliday, Matt NYY Stroman, Marcus TOR 1 Yankee Stadi... PL 440 112.7 20.0 94.5 65 1 0 0 439 29
05/23/17 Video View Hicks, Aaron NYY Duffy, Danny KC 4 Yankee Stadi... JE 340 95.3 28.8 57.5 68 1 0 0 339 4
05/28/17 Video View Judge, Aaron NYY Triggs, Andrew OAK 3 Yankee Stadi... PL 377 104.8 22.7 71.3 60 1 0 0 377 11
06/07/17 Video View Gregorius, Didi NYY Porcello, Rick BOS 3 Yankee Stadi... JE 399 99.9 27.2 83.4 86 1 0 0 398 12
06/09/17 Video View Hicks, Aaron NYY Jackson, Edwin BAL 7 Yankee Stadi... PL 367 97.9 34.4 64.9 106 1 2 0 363 25
06/10/17 Video View Rickard, Joey BAL Gallegos, Giovanny NYY 8 Yankee Stadi... PL 391 101.2 29.3 109.8 89 1 2 0 388 30
06/11/17 Video View Judge, Aaron NYY Yacabonis, Jimmy BAL 7 Yankee Stadi... PL 401 112.4 19.4 77.3 52 1 1 0 399 19
06/25/17 Video View Beltre, Adrian TEX Pineda, Michael NYY 1 Yankee Stadi... PL 408 102.0 30.7 102.8 106 1 4 0 404 30
06/25/17 Video View Robinson, Drew TEX Pineda, Michael NYY 4 Yankee Stadi... PL 418 102.4 29.8 83.4 107 1 2 0 415 26
06/25/17 Video View Sanchez, Gary NYY Martinez, Nick TEX 5 Yankee Stadi... JE 420 103.0 26.1 89.5 88 1 1 0 419 26
04/13/17 Video View Bourjos, Peter TB Severino, Luis NYY 5 Yankee Stadi... PL 397 104.3 26.7 110.2 81 0 -1 0 397 30
04/10/17 Video View Castro, Starlin NYY Pruitt, Austin TB 8 Yankee Stadi... JE 378 96.6 32.0 79.8 105 0 0 0 378 1
04/10/17 Video View Headley, Chase NYY Cobb, Alex TB 7 Yankee Stadi... JE 347 105.8 20.7 62.5 45 0 -1 -1 347 1
04/19/17 Video View Hicks, Aaron NYY Ynoa, Michael CHW 8 Yankee Stadi... JE 334 107.5 19.6 51.7 40 0 -1 0 336 2
04/28/17 Video View Machado, Manny BAL Sabathia, CC NYY 5 Yankee Stadi... ND 466 112.6 23.3 86.9 90 0 1 0 465 30
04/28/17 Video View Judge, Aaron NYY Gausman, Kevin BAL 5 Yankee Stadi... JE 410 112.2 19.6 100.3 56 0 0 0 410 25
04/28/17 Video View Trumbo, Mark BAL Mitchell, Bryan NYY 6 Yankee Stadi... ND 454 115.1 23.8 105.4 83 0 1 0 453 30
04/28/17 Video View Ellsbury, Jacoby NYY Nuno, Vidal BAL 7 Yankee Stadi... ND 417 109.1 23.2 75.4 70 0 1 0 416 29
04/28/17 Video View Castro, Starlin NYY Brach, Brad BAL 9 Yankee Stadi... PL 412 105.1 29.1 108.7 97 0 1 0 411 30
04/28/17 Video View Holliday, Matt NYY Aquino, Jayson BAL 10 Yankee Stadi... JE 414 103.3 24.9 85.4 82 0 0 0 414 21
04/29/17 Video View Gardner, Brett NYY Jimenez, Ubaldo BAL 2 Yankee Stadi... JE 410 102.2 25.3 85.9 81 0 1 0 409 18
04/29/17 Video View Romine, Austin NYY Nuno, Vidal BAL 6 Yankee Stadi... JE 381 98.0 31.9 105.9 102 0 2 0 378 24
05/02/17 Video View Hicks, Aaron NYY Latos, Mat TOR 2 Yankee Stadi... PL 360 97.1 36.2 71.6 122 0 0 0 359 15
05/14/17 Video View Reddick, Josh HOU Tanaka, Masahiro NYY 1 Yankee Stadi... ND 389 113.0 21.5 59.8 54 0 -1 0 390 30
05/14/17 Video View Springer, George HOU Tanaka, Masahiro NYY 1 Yankee Stadi... JE 428 109.7 20.0 90.4 65 0 0 0 428 28
05/14/17 Video View Bregman, Alex HOU Tanaka, Masahiro NYY 1 Yankee Stadi... PL 420 108.2 25.3 106.0 83 0 -1 0 421 30
05/14/17 Video View Springer, George HOU Tanaka, Masahiro NYY 2 Yankee Stadi... ND 421 109.1 24.5 74.0 77 0 -1 0 422 30
05/22/17 Video View Bonifacio, Jorge KC Pineda, Michael NYY 3 Yankee Stadi... PL 376 101.0 35.1 111.0 124 0 -2 0 377 30
05/22/17 Video View Gardner, Brett NYY Vargas, Jason KC 3 Yankee Stadi... PL 398 105.9 23.5 75.2 68 0 -1 0 399 28
05/22/17 Video View Gregorius, Didi NYY Vargas, Jason KC 4 Yankee Stadi... ND 403 104.8 30.7 67.7 104 0 -1 0 404 30
05/23/17 Video View Carter, Chris NYY Duffy, Danny KC 5 Yankee Stadi... ND 420 106.3 30.8 106.1 115 0 -1 0 420 30
05/23/17 Video View Cain, Lorenzo KC Montgomery, Jordan NYY 7 Yankee Stadi... PL 398 102.7 28.3 107.5 90 0 0 0 399 30
05/23/17 Video View Bonifacio, Jorge KC Warren, Adam NYY 7 Yankee Stadi... PL 371 102.0 24.7 68.6 64 0 0 0 371 18
05/23/17 Video View Merrifield, Whit KC Holder, Jonathan NYY 8 Yankee Stadi... PL 385 101.3 25.4 75.4 73 0 0 0 385 18
05/23/17 Video View Moustakas, Mike KC Shreve, Chasen NYY 8 Yankee Stadi... PL 374 104.7 37.4 65.8 143 0 -1 0 375 29
05/24/17 Video View Gregorius, Didi NYY Hammel, Jason KC 3 Yankee Stadi... PL 392 101.5 28.0 73.1 86 0 0 0 392 29
05/28/17 Video View Davis, Khris OAK Green, Chad NYY 8 Yankee Stadi... JE/L 382 106.1 21.9 106.7 57 0 0 0 382 21
06/06/17 Video View Benintendi, Andrew BOS Tanaka, Masahiro NYY 5 Yankee Stadi... ND 408 107.4 27.5 68.9 92 0 0 -2 416 30
06/08/17 Video View Sanchez, Gary NYY Price, David BOS 3 Yankee Stadi... PL 415 110.3 22.6 105.3 67 0 0 0 415 30
06/08/17 Video View Sanchez, Gary NYY Price, David BOS 5 Yankee Stadi... ND 415 105.9 24.9 78.5 79 0 -1 0 416 29
06/08/17 Video View Gardner, Brett NYY Workman, Brandon BOS 8 Yankee Stadi... PL 408 101.9 27.4 83.2 94 0 -1 0 409 18
06/09/17 Video View Hicks, Aaron NYY Bundy, Dylan BAL 6 Yankee Stadi... ND 409 107.0 25.8 70.4 78 0 0 0 408 30
06/10/17 Video View Castro, Starlin NYY Tillman, Chris BAL 2 Yankee Stadi... ND 440 110.1 25.2 102.7 87 0 2 0 439 30
06/10/17 Video View Sanchez, Gary NYY Wright, Mike BAL 8 Yankee Stadi... JE 405 116.5 18.4 103.3 49 0 1 0 405 27
06/11/17 Video View Sanchez, Gary NYY Gausman, Kevin BAL 1 Yankee Stadi... ND 450 114.5 22.2 101.1 73 0 1 0 449 30
06/20/17 Video View Judge, Aaron NYY Bridwell, Parker LAA 5 Yankee Stadi... PL 388 99.9 34.7 79.4 128 0 3 0 386 16
06/20/17 Video View Sanchez, Gary NYY Parker, Blake LAA 6 Yankee Stadi... ND 400 110.7 21.6 71.5 59 0 0 0 400 29
06/20/17 Video View Maybin, Cameron LAA Clippard, Tyler NYY 7 Yankee Stadi... JE 385 107.5 21.8 108.0 57 0 0 0 385 21
06/20/17 Video View Valbuena, Luis LAA Holder, Jonathan NYY 9 Yankee Stadi... JE 420 105.5 22.9 92.7 74 0 1 0 419 23
06/21/17 Video View Maldonado, Martin LAA Clippard, Tyler NYY 9 Yankee Stadi... PL 382 98.4 27.3 78.1 80 0 1 0 381 8
06/25/17 Video View Torreyes, Ronald NYY Leclerc, Jose TEX 7 Yankee Stadi... JE 355 98.2 27.7 119.1 69 0 1 0 354 14
04/14/17 Video View Carpenter, Matt STL Tanaka, Masahiro NYY 1 Yankee Stadi... ND 421 106.9 25.2 77.9 84 -1 -1 0 422 29
04/13/17 Video View Hicks, Aaron NYY Cedeno, Xavier TB 7 Yankee Stadi... JE 373 101.2 26.6 113.0 73 -1 -1 0 374 21
04/12/17 Video View Judge, Aaron NYY Ramirez, Erasmo TB 7 Yankee Stadi... PL 435 105.9 26.8 87.4 101 -1 0 0 436 30
04/12/17 Video View Weeks, Rickie TB Montgomery, Jordan NYY 1 Yankee Stadi... PL 391 102.8 34.0 107.3 127 -1 -1 0 393 30
04/19/17 Video View Judge, Aaron NYY Covey, Dylan CHW 5 Yankee Stadi... ND 451 113.9 29.1 106.5 122 -1 -5 0 458 30
04/19/17 Video View Castro, Starlin NYY Covey, Dylan CHW 5 Yankee Stadi... JE 405 108.3 21.7 101.7 63 -1 -1 0 407 30
05/01/17 Video View Bautista, Jose TOR Cessa, Luis NYY 7 Yankee Stadi... PL 425 107.1 23.7 97.4 84 -1 0 0 426 30
05/02/17 Video View Gardner, Brett NYY Latos, Mat TOR 2 Yankee Stadi... ND 384 104.0 25.4 68.0 71 -1 0 0 385 29
05/12/17 Video View McCann, Brian HOU Montgomery, Jordan NYY 4 Yankee Stadi... PL 366 99.6 32.2 60.0 94 -1 -3 -3 369 30
05/27/17 Video View Phegley, Josh OAK Sabathia, CC NYY 7 Yankee Stadi... ND 408 106.8 28.3 114.3 90 -1 0 0 408 30
06/06/17 Video View Ramirez, Hanley BOS Tanaka, Masahiro NYY 4 Yankee Stadi... JE 384 106.4 23.1 110.5 63 -1 -1 0 385 28
06/22/17 Video View Judge, Aaron NYY Chavez, Jesse LAA 2 Yankee Stadi... JE 422 102.8 29.5 89.6 110 -1 2 0 420 28
04/10/17 Video View Morrison, Logan TB Pineda, Michael NYY 8 Yankee Stadi... JE 378 98.1 26.2 80.2 80 -2 0 0 380 1
04/16/17 Video View Molina, Yadier STL Pineda, Michael NYY 7 Yankee Stadi... JE 357 96.7 31.3 117.1 89 -2 0 0 358 13
05/02/17 Video View Gardner, Brett NYY Latos, Mat TOR 4 Yankee Stadi... JE/L 384 97.7 32.3 82.5 112 -2 0 0 386 8
05/26/17 Video View Vogt, Stephen OAK Holder, Jonathan NYY 9 Yankee Stadi... ND 407 102.7 30.9 78.0 112 -2 1 0 408 29
06/21/17 Video View Holliday, Matt NYY Nolasco, Ricky LAA 5 Yankee Stadi... PL 387 100.5 30.1 71.9 96 -2 1 0 388 29
06/23/17 Video View Gardner, Brett NYY Bush, Matt TEX 9 Yankee Stadi... JE 343 96.5 27.4 60.8 66 -2 0 0 343 4
04/15/17 Video View Gyorko, Jedd STL Sabathia, CC NYY 8 Yankee Stadi... PL 363 96.0 32.9 73.8 106 -3 -1 0 367 11
05/02/17 Video View Judge, Aaron NYY Grilli, Jason TOR 7 Yankee Stadi... PL 391 104.9 35.0 110.1 141 -3 -1 0 394 30
05/22/17 Video View Carter, Chris NYY Maness, Seth KC 7 Yankee Stadi... JE 387 100.9 33.6 103.4 124 -3 -2 0 391 27
06/06/17 Video View Moreland, Mitch BOS Tanaka, Masahiro NYY 4 Yankee Stadi... ND 438 112.0 25.8 73.9 94 -3 -2 0 444 30
06/11/17 Video View Judge, Aaron NYY Verrett, Logan BAL 6 Yankee Stadi... ND 496 119.6 26.4 102.8 117 -3 5 0 493 30
06/21/17 Video View Gregorius, Didi NYY Nolasco, Ricky LAA 2 Yankee Stadi... PL 345 94.8 34.9 61.6 100 -3 3 0 345 19
06/21/17 Video View Maldonado, Martin LAA Montgomery, Jordan NYY 4 Yankee Stadi... ND 402 105.4 32.7 113.8 116 -3 2 0 402 30
06/11/17 Video View Castro, Starlin NYY Verrett, Logan BAL 6 Yankee Stadi... PL 392 101.4 32.0 108.6 108 -4 4 0 391 30
06/06/17 Video View Carter, Chris NYY Pomeranz, Drew BOS 5 Yankee Stadi... PL 391 103.5 29.2 110.8 96 -5 -2 0 399 30
05/02/17 Video View Pearce, Steve TOR Tanaka, Masahiro NYY 5 Yankee Stadi... PL 406 106.8 30.0 111.5 110 -9 0 0 416 30


About HitTracker | Contact Us
© 2006-2017 HitTrackerOnline